createdAt,value
2023-10-06T04:53:19.031Z,182.67
2023-10-06T04:53:51.616Z,179.33
2023-10-06T04:54:24.476Z,179.00
2023-10-06T04:54:57.089Z,177.67
2023-10-06T04:55:32.749Z,176.33
2023-10-06T04:56:07.276Z,175.33
2023-10-06T04:56:39.944Z,174.33
2023-10-06T04:57:12.458Z,173.33
2023-10-06T04:57:44.989Z,172.33
2023-10-06T04:58:19.179Z,171.33
2023-10-06T04:58:55.087Z,169.00
2023-10-06T04:59:28.680Z,167.67
2023-10-06T05:00:01.232Z,167.00
2023-10-06T05:00:34.554Z,167.00
2023-10-06T05:01:09.046Z,166.00
2023-10-06T05:01:42.194Z,166.00
2023-10-06T05:02:15.516Z,166.33
2023-10-06T05:02:53.856Z,167.00
2023-10-06T05:03:41.957Z,167.00
2023-10-06T05:04:14.735Z,166.00
2023-10-06T05:04:47.305Z,166.00
2023-10-06T05:05:23.000Z,165.67
2023-10-06T05:05:57.872Z,164.33
2023-10-06T05:06:30.529Z,164.00
2023-10-06T05:07:07.400Z,163.00
2023-10-06T05:07:40.344Z,161.67
2023-10-06T05:08:16.142Z,219.00
2023-10-06T05:08:49.628Z,325.67
2023-10-06T05:09:22.523Z,281.67
2023-10-06T05:09:56.908Z,254.00
2023-10-06T05:10:31.567Z,226.67
2023-10-06T05:11:04.085Z,211.33
2023-10-06T05:11:39.714Z,202.00
2023-10-06T05:12:12.373Z,174.33
2023-10-06T05:12:44.842Z,162.33
2023-10-06T05:13:17.680Z,156.67
2023-10-06T05:13:56.796Z,152.00
2023-10-06T05:14:29.380Z,149.67
2023-10-06T05:15:03.150Z,153.67
2023-10-06T05:15:36.140Z,158.00
2023-10-06T05:16:12.689Z,162.67
2023-10-06T05:16:45.825Z,166.00
2023-10-06T05:17:18.465Z,167.33
2023-10-06T05:17:57.078Z,168.00
2023-10-06T05:18:30.640Z,168.33
2023-10-06T05:19:04.888Z,169.67
2023-10-06T05:19:37.403Z,171.00
2023-10-06T05:20:20.612Z,171.00
2023-10-06T05:20:53.415Z,170.67
2023-10-06T05:21:25.951Z,170.00
2023-10-06T05:22:05.108Z,169.33
2023-10-06T05:22:37.662Z,169.00
2023-10-06T05:23:16.243Z,169.00
2023-10-06T05:23:49.049Z,169.00
2023-10-06T05:24:21.616Z,169.33
2023-10-06T05:24:54.403Z,170.33
2023-10-06T05:25:30.763Z,171.33
2023-10-06T05:26:05.486Z,172.67
2023-10-06T05:26:38.009Z,173.00
2023-10-06T05:27:11.245Z,173.33
2023-10-06T05:27:51.905Z,174.00
2023-10-06T05:28:24.491Z,174.33
2023-10-06T05:28:57.177Z,175.00
2023-10-06T05:29:29.703Z,175.00
2023-10-06T05:30:04.097Z,176.00
2023-10-06T05:30:38.248Z,176.00
2023-10-06T05:31:10.846Z,176.00
2023-10-06T05:31:43.486Z,176.00
2023-10-06T05:32:16.117Z,176.00
2023-10-06T05:32:49.405Z,176.00
2023-10-06T05:33:22.748Z,176.00
2023-10-06T05:33:55.316Z,176.00
2023-10-06T05:34:30.446Z,176.00
2023-10-06T05:35:05.573Z,175.33
2023-10-06T05:35:39.843Z,175.00
2023-10-06T05:36:15.837Z,174.33
2023-10-06T05:36:51.588Z,172.00
2023-10-06T05:37:24.124Z,168.33
2023-10-06T05:37:56.995Z,164.67
2023-10-06T05:38:31.880Z,161.00
2023-10-06T05:39:04.593Z,160.33
2023-10-06T05:39:37.216Z,159.33
2023-10-06T05:40:13.886Z,159.00
2023-10-06T05:40:48.210Z,160.00
2023-10-06T05:41:20.841Z,161.00
2023-10-06T05:41:53.355Z,161.67
2023-10-06T05:42:28.247Z,162.00
2023-10-06T05:43:02.055Z,162.67
2023-10-06T05:43:34.638Z,163.00
2023-10-06T05:44:09.916Z,163.00
2023-10-06T05:44:45.189Z,163.00
2023-10-06T05:45:22.135Z,163.00
2023-10-06T05:45:56.777Z,163.00
2023-10-06T05:46:29.355Z,163.00
2023-10-06T05:47:09.449Z,162.33
2023-10-06T05:47:44.986Z,161.33
2023-10-06T05:48:19.833Z,160.33
2023-10-06T05:48:55.275Z,160.00
2023-10-06T05:49:32.976Z,159.00
2023-10-06T05:50:09.983Z,159.00
2023-10-06T05:50:44.529Z,159.33
2023-10-06T05:51:22.547Z,160.00
2023-10-06T05:51:57.529Z,161.33
2023-10-06T05:52:48.308Z,164.00
2023-10-06T05:53:40.480Z,168.00
2023-10-06T05:54:23.019Z,168.00
2023-10-06T05:55:09.704Z,168.00
2023-10-06T05:55:42.861Z,167.00
2023-10-06T05:56:21.139Z,165.67
2023-10-06T05:56:54.718Z,158.33
2023-10-06T05:57:28.073Z,154.00
2023-10-06T05:58:01.765Z,152.67
2023-10-06T05:58:35.933Z,152.00
2023-10-06T05:59:08.722Z,152.67
2023-10-06T05:59:41.362Z,152.33
2023-10-06T06:00:19.801Z,151.67
2023-10-06T06:00:52.661Z,149.00
2023-10-06T06:01:30.352Z,147.00
2023-10-06T06:02:03.517Z,143.33
2023-10-06T06:02:38.759Z,142.67
2023-10-06T06:03:11.768Z,142.00
2023-10-06T06:03:47.390Z,142.67
2023-10-06T06:04:28.772Z,144.00
2023-10-06T06:05:01.822Z,145.00
2023-10-06T06:05:36.617Z,144.00
2023-10-06T06:06:10.880Z,142.67
2023-10-06T06:06:43.564Z,141.67
2023-10-06T06:07:19.329Z,141.00
2023-10-06T06:07:53.160Z,141.00
2023-10-06T06:08:25.678Z,141.00
2023-10-06T06:08:58.186Z,141.00
2023-10-06T06:09:34.938Z,141.67
2023-10-06T06:10:14.387Z,142.00
2023-10-06T06:10:46.978Z,142.33
2023-10-06T06:11:19.584Z,143.00
2023-10-06T06:11:52.819Z,143.00
2023-10-06T06:12:25.348Z,144.00
2023-10-06T06:13:00.965Z,144.33
2023-10-06T06:13:35.465Z,145.00
2023-10-06T06:14:17.439Z,145.00
2023-10-06T06:14:50.566Z,145.00
2023-10-06T06:15:23.503Z,145.67
2023-10-06T06:15:56.144Z,146.00
2023-10-06T06:16:29.225Z,146.00
2023-10-06T06:17:03.491Z,146.00
2023-10-06T06:17:37.347Z,146.00
2023-10-06T06:18:15.142Z,145.67
2023-10-06T06:18:49.764Z,145.00
2023-10-06T06:19:22.636Z,145.00
2023-10-06T06:20:04.759Z,145.00
2023-10-06T06:20:45.511Z,146.00
2023-10-06T06:21:18.101Z,146.00
2023-10-06T06:21:50.642Z,146.00
2023-10-06T06:22:23.226Z,145.33
2023-10-06T06:23:03.621Z,145.00
2023-10-06T06:23:36.484Z,144.33
2023-10-06T06:24:09.593Z,143.67
2023-10-06T06:24:42.140Z,141.67
2023-10-06T06:25:15.402Z,141.00
2023-10-06T06:25:48.156Z,141.00
2023-10-06T06:26:20.720Z,141.00
2023-10-06T06:26:53.239Z,141.00
2023-10-06T06:27:26.101Z,141.00
2023-10-06T06:28:00.574Z,141.00
2023-10-06T06:28:33.168Z,141.00
2023-10-06T06:29:07.295Z,141.00
2023-10-06T06:29:40.194Z,140.00
2023-10-06T06:30:13.154Z,139.00
2023-10-06T06:30:48.454Z,138.00
2023-10-06T06:31:21.531Z,138.00
2023-10-06T06:31:57.297Z,138.00
2023-10-06T06:32:30.436Z,138.00
2023-10-06T06:33:05.494Z,138.00
2023-10-06T06:33:38.170Z,137.67
2023-10-06T06:34:10.965Z,137.00
2023-10-06T06:34:43.522Z,136.00
2023-10-06T06:35:20.335Z,134.67
2023-10-06T06:35:54.368Z,132.33
2023-10-06T06:36:28.185Z,131.67
2023-10-06T06:37:01.784Z,129.67
2023-10-06T06:37:34.981Z,126.33
2023-10-06T06:38:07.518Z,125.00
2023-10-06T06:38:40.887Z,124.67
2023-10-06T06:39:13.405Z,122.67
2023-10-06T06:39:45.930Z,151.67
2023-10-06T06:40:22.016Z,307.00
2023-10-06T06:40:55.009Z,377.00
2023-10-06T06:41:28.124Z,444.33
2023-10-06T06:42:00.836Z,464.67
2023-10-06T06:42:44.953Z,454.67
2023-10-06T06:43:21.333Z,461.33
2023-10-06T06:43:59.844Z,448.67
2023-10-06T06:44:33.851Z,448.67
2023-10-06T06:45:07.577Z,430.00
2023-10-06T06:45:43.300Z,429.67
2023-10-06T06:46:18.232Z,423.00
2023-10-06T06:46:51.029Z,434.00
2023-10-06T06:47:26.597Z,421.33
2023-10-06T06:48:04.305Z,448.67
2023-10-06T06:48:39.513Z,450.67
2023-10-06T06:49:17.280Z,439.33
2023-10-06T06:53:49.955Z,444.67
2023-10-06T06:54:22.511Z,437.33
2023-10-06T06:54:56.659Z,420.33
2023-10-06T06:55:29.192Z,444.00
2023-10-06T06:56:01.727Z,430.00
2023-10-06T06:56:34.337Z,441.33
2023-10-06T06:57:08.767Z,448.33
2023-10-06T06:57:45.813Z,433.33
2023-10-06T06:58:18.340Z,427.67
2023-10-06T06:58:53.094Z,445.33
2023-10-06T06:59:26.957Z,450.67
2023-10-06T06:59:59.649Z,441.00
2023-10-06T07:00:32.438Z,439.67
2023-10-06T07:01:08.653Z,427.33
2023-10-06T07:01:41.238Z,427.33
2023-10-06T07:02:13.867Z,439.00
2023-10-06T07:02:52.009Z,440.67
2023-10-06T07:03:25.365Z,435.67
2023-10-06T07:04:02.934Z,439.00
2023-10-06T07:04:38.125Z,439.00
2023-10-06T07:05:12.280Z,435.67
2023-10-06T07:05:45.947Z,441.67
2023-10-06T07:06:18.694Z,404.33
2023-10-06T07:06:54.036Z,342.00
2023-10-06T07:07:26.596Z,370.00
2023-10-06T07:08:01.838Z,392.00
2023-10-06T07:08:34.482Z,386.00
2023-10-06T07:09:15.147Z,344.67
2023-10-06T07:09:48.063Z,384.00
2023-10-06T07:10:24.046Z,375.00
2023-10-06T07:10:57.455Z,351.00
2023-10-06T07:11:30.120Z,371.67
2023-10-06T07:12:02.708Z,357.67
2023-10-06T07:12:37.701Z,370.00
2023-10-06T07:13:19.101Z,364.33
2023-10-06T07:13:59.653Z,384.33
2023-10-06T07:14:32.273Z,391.00
2023-10-06T07:15:16.673Z,362.00
2023-10-06T07:15:55.025Z,375.33
2023-10-06T07:33:35.360Z,297.67
2023-10-06T07:34:10.892Z,299.33
2023-10-06T07:34:43.771Z,300.00
2023-10-06T07:35:19.079Z,289.33
2023-10-06T07:35:55.103Z,243.33
2023-10-06T07:36:28.142Z,277.33
2023-10-06T07:37:00.736Z,300.33
2023-10-06T07:37:33.276Z,280.67
2023-10-06T07:38:05.971Z,304.67
2023-10-06T07:38:38.769Z,325.33
2023-10-06T07:39:21.674Z,335.67
2023-10-06T07:39:54.335Z,301.33
2023-10-06T07:40:29.197Z,309.00
2023-10-06T07:41:06.569Z,284.00
2023-10-06T07:41:55.933Z,255.67
2023-10-06T07:42:28.718Z,322.67
2023-10-06T07:43:03.905Z,330.33
2023-10-06T07:43:36.697Z,330.00
2023-10-06T07:44:12.862Z,324.33
2023-10-06T07:44:54.380Z,282.67
2023-10-06T07:46:37.074Z,292.00
2023-10-06T07:47:41.254Z,294.33
2023-10-06T07:48:29.355Z,299.00
2023-10-06T07:49:42.957Z,291.67
2023-10-06T07:50:20.272Z,292.33
2023-10-06T07:50:56.990Z,298.67
2023-10-06T07:51:42.427Z,315.33
2023-10-06T07:52:30.787Z,318.33
2023-10-06T07:53:10.213Z,316.67
2023-10-06T07:53:47.719Z,368.33
2023-10-06T07:54:34.402Z,343.67
2023-10-06T07:55:42.860Z,308.00
2023-10-06T07:56:54.703Z,306.33
2023-10-06T07:57:35.550Z,325.00
2023-10-06T07:58:20.344Z,317.33
2023-10-06T07:58:55.406Z,326.33
2023-10-06T08:01:37.381Z,266.33
2023-10-06T08:02:22.854Z,210.33
2023-10-06T08:03:05.683Z,179.33
2023-10-06T08:03:42.958Z,166.33
2023-10-06T08:04:15.643Z,161.33
2023-10-06T08:04:54.531Z,156.67
2023-10-06T08:05:31.488Z,148.33
2023-10-06T08:06:15.408Z,140.33
2023-10-06T08:06:48.119Z,137.00
2023-10-06T08:07:27.656Z,127.00
2023-10-06T08:08:05.475Z,128.33
2023-10-06T08:08:42.315Z,128.33
2023-10-06T08:09:14.874Z,128.33
2023-10-06T08:09:49.471Z,128.67
2023-10-06T08:12:17.158Z,138.67
2023-10-06T08:14:26.297Z,125.00
2023-10-06T08:16:21.621Z,121.67
2023-10-06T08:17:02.752Z,117.00
2023-10-06T08:18:18.457Z,113.33
2023-10-06T08:18:54.967Z,108.33
2023-10-06T08:20:06.765Z,117.67
2023-10-06T08:20:42.511Z,137.00
2023-10-06T08:21:25.927Z,146.33
2023-10-06T08:22:14.929Z,144.67
2023-10-06T08:23:16.989Z,129.00
2023-10-06T08:23:55.829Z,113.33
2023-10-06T08:24:48.273Z,110.00
2023-10-06T08:27:37.047Z,123.67
2023-10-06T08:28:12.398Z,143.00
2023-10-06T08:30:05.682Z,270.00
2023-10-06T08:30:38.875Z,324.67
2023-10-06T08:31:20.382Z,325.00
2023-10-06T08:31:55.005Z,282.00
2023-10-06T08:32:30.818Z,229.67
2023-10-06T08:33:04.183Z,239.67
2023-10-06T08:33:39.672Z,314.33
2023-10-06T08:34:13.181Z,335.00
2023-10-06T08:34:47.726Z,336.00
2023-10-06T08:36:24.127Z,308.33
2023-10-06T08:39:12.040Z,327.33
2023-10-06T08:40:31.998Z,314.33
2023-10-06T08:48:34.289Z,227.33
2023-10-06T08:49:08.281Z,237.00
2023-10-06T08:49:47.803Z,238.33
2023-10-06T08:50:24.997Z,239.00
2023-10-06T08:50:59.912Z,239.00
2023-10-06T08:51:34.146Z,254.33
2023-10-06T08:52:10.664Z,283.33
2023-10-06T08:52:47.192Z,281.33
2023-10-06T08:53:21.661Z,268.33
2023-10-06T08:53:57.319Z,216.00
2023-10-06T08:54:32.181Z,202.33
2023-10-06T08:55:07.733Z,164.67
2023-10-06T08:55:40.369Z,138.67
2023-10-06T08:56:16.537Z,151.67
2023-10-06T08:56:58.170Z,224.67
2023-10-06T08:57:34.697Z,228.00
2023-10-06T08:58:08.914Z,219.67
2023-10-06T08:58:43.004Z,218.00
2023-10-06T08:59:18.181Z,216.33
2023-10-06T08:59:50.800Z,204.33
2023-10-06T09:00:27.836Z,160.67
2023-10-06T09:01:01.179Z,118.33
2023-10-06T09:01:36.748Z,117.33
2023-10-06T09:02:11.550Z,142.67
2023-10-06T09:02:49.333Z,156.00
2023-10-06T09:04:11.135Z,200.33
2023-10-06T09:04:44.288Z,214.33
2023-10-06T09:05:17.025Z,224.00
2023-10-06T09:05:52.924Z,218.67
2023-10-06T09:06:27.059Z,214.67
2023-10-06T09:07:09.401Z,168.00
2023-10-06T09:08:01.185Z,135.67
2023-10-06T09:08:41.692Z,171.00
2023-10-06T09:10:24.364Z,228.33
2023-10-06T09:10:58.214Z,321.67
2023-10-06T09:15:05.377Z,132.67
2023-10-06T09:24:25.255Z,122.33
2023-10-06T09:28:33.497Z,100.67
2023-10-06T09:29:06.234Z,90.00
2023-10-06T09:29:50.419Z,68.67
2023-10-06T09:30:22.917Z,73.00
2023-10-06T09:31:03.259Z,244.67
2023-10-06T09:31:40.401Z,275.67
2023-10-06T09:32:23.416Z,211.67
2023-10-06T09:33:06.085Z,147.33
2023-10-06T09:33:39.216Z,92.67
2023-10-06T09:34:13.588Z,56.00
2023-10-06T09:34:46.427Z,37.67
2023-10-06T09:35:23.366Z,28.00
2023-10-06T09:36:02.947Z,23.67
2023-10-06T09:36:44.292Z,21.33
2023-10-06T09:37:20.220Z,34.67
2023-10-06T09:37:52.862Z,33.67
2023-10-06T09:38:27.964Z,30.33
2023-10-06T09:39:01.911Z,29.00
2023-10-06T09:39:34.749Z,31.00
2023-10-06T09:40:23.352Z,26.00
2023-10-06T09:40:55.956Z,29.67
2023-10-06T09:41:33.872Z,60.33
2023-10-06T09:42:11.390Z,139.00
2023-10-06T09:42:48.837Z,122.33
2023-10-06T09:43:23.882Z,90.00
2023-10-06T09:44:10.961Z,70.00
2023-10-06T09:44:47.474Z,59.33
2023-10-06T09:45:22.811Z,59.00
2023-10-06T09:45:57.819Z,52.67
2023-10-06T09:46:37.818Z,39.33
2023-10-06T09:47:12.743Z,33.00
2023-10-06T09:47:56.672Z,38.67
2023-10-06T09:48:37.698Z,41.33
2023-10-06T09:49:16.563Z,36.67
2023-10-06T09:49:53.289Z,34.33
2023-10-06T09:50:28.709Z,41.67
2023-10-06T09:51:07.358Z,45.33
2023-10-06T09:51:44.643Z,44.33
2023-10-06T09:52:29.745Z,47.00
2023-10-06T09:53:06.671Z,63.33
2023-10-06T09:53:40.794Z,92.00
2023-10-06T09:54:14.062Z,131.33
2023-10-06T09:54:47.454Z,184.00
2023-10-06T09:55:22.321Z,144.67
2023-10-06T09:55:59.060Z,126.67
2023-10-06T09:56:40.398Z,150.67
2023-10-06T09:57:13.323Z,103.00
2023-10-06T09:57:50.492Z,87.67
2023-10-06T09:58:23.799Z,81.67
2023-10-06T09:58:57.177Z,72.00
2023-10-06T09:59:34.114Z,71.00
2023-10-06T10:00:16.808Z,70.33
2023-10-06T10:00:50.874Z,62.67
2023-10-06T10:01:27.363Z,57.00
2023-10-06T10:02:09.192Z,61.33
2023-10-06T10:02:46.151Z,37.67
2023-10-06T10:03:19.805Z,25.67
2023-10-06T10:04:00.385Z,22.33
2023-10-06T10:04:34.449Z,19.00
2023-10-06T10:05:12.327Z,19.00
2023-10-06T10:05:49.913Z,18.33
2023-10-06T10:06:26.819Z,18.33
2023-10-06T10:07:04.239Z,20.67
2023-10-06T10:07:37.260Z,18.33
2023-10-06T10:08:09.831Z,24.67
2023-10-06T10:08:43.910Z,31.33
2023-10-06T10:09:18.427Z,82.00
2023-10-06T10:09:54.177Z,79.67
2023-10-06T10:10:28.837Z,64.33
2023-10-06T10:11:09.727Z,42.00
2023-10-06T10:11:48.924Z,28.00
2023-10-06T10:12:39.722Z,26.33
2023-10-06T10:13:45.186Z,38.33
2023-10-06T10:14:55.783Z,213.33
2023-10-06T10:15:39.432Z,284.33
2023-10-06T10:16:46.371Z,213.00
2023-10-06T10:17:39.169Z,265.00
2023-10-06T10:18:36.697Z,209.00
2023-10-06T10:19:13.466Z,146.67
2023-10-06T10:20:09.048Z,111.00
2023-10-06T10:20:42.028Z,62.67
2023-10-06T10:21:16.882Z,42.00
2023-10-06T10:21:50.836Z,20.67
2023-10-06T10:22:27.562Z,15.67
2023-10-06T10:23:02.556Z,16.00
2023-10-06T10:23:35.245Z,12.00
2023-10-06T10:24:53.202Z,8.00
2023-10-06T10:25:26.795Z,27.00
2023-10-06T10:26:23.372Z,42.67
2023-10-06T10:26:56.006Z,114.00
2023-10-06T10:27:28.672Z,93.33
2023-10-06T10:28:20.829Z,109.00
2023-10-06T10:29:28.564Z,79.33
2023-10-06T10:30:14.134Z,131.00
2023-10-06T10:30:55.200Z,99.00
2023-10-06T10:31:28.029Z,59.33
2023-10-06T10:32:10.971Z,39.33
2023-10-06T10:32:44.346Z,25.33
2023-10-06T10:33:25.275Z,17.33
2023-10-06T10:34:05.303Z,23.00
2023-10-06T10:35:14.214Z,27.33
2023-10-06T10:36:15.947Z,11.67
2023-10-06T10:37:05.856Z,5.33
2023-10-06T10:37:56.957Z,5.33
2023-10-06T10:38:33.140Z,3.33
2023-10-06T10:39:41.063Z,2.00
2023-10-06T10:40:17.414Z,1.00
2023-10-06T10:40:50.184Z,1.00
2023-10-06T10:41:27.317Z,1.00
2023-10-06T10:42:00.160Z,1.33
2023-10-06T10:42:40.404Z,6.67
2023-10-06T10:43:14.324Z,8.00
2023-10-06T10:43:50.465Z,8.00
2023-10-06T10:45:38.202Z,2.67
2023-10-06T10:46:10.865Z,2.00
2023-10-06T10:46:49.890Z,1.67
2023-10-06T10:47:25.176Z,1.00
2023-10-06T10:48:00.305Z,1.00
2023-10-06T10:48:38.549Z,1.00
2023-10-06T10:49:12.328Z,1.00
2023-10-06T10:49:48.108Z,1.00
2023-10-06T10:50:21.235Z,1.00
2023-10-06T10:51:11.909Z,1.00
2023-10-06T10:52:02.099Z,1.00
2023-10-06T10:52:35.818Z,1.00
2023-10-06T10:53:08.322Z,2.00
2023-10-06T10:53:44.959Z,3.67
2023-10-06T10:54:24.052Z,4.33
2023-10-06T10:54:57.394Z,5.00
2023-10-06T10:55:32.620Z,4.00
2023-10-06T10:56:08.456Z,3.67
2023-10-06T10:56:44.351Z,3.00
2023-10-06T10:57:22.614Z,2.00
2023-10-06T10:57:55.168Z,2.00
2023-10-06T10:58:45.831Z,2.00
2023-10-06T10:59:22.881Z,2.67
2023-10-06T11:00:10.404Z,3.00
2023-10-06T11:01:22.041Z,2.00
2023-10-06T11:01:55.195Z,2.00
2023-10-06T11:02:43.720Z,2.00
2023-10-06T11:03:17.388Z,2.00
2023-10-06T11:04:14.339Z,3.00
2023-10-06T11:04:47.190Z,17.00
2023-10-06T11:05:21.805Z,16.33
2023-10-06T11:05:58.148Z,15.00
2023-10-06T11:06:31.644Z,13.33
2023-10-06T11:07:17.455Z,11.33
2023-10-06T11:07:55.804Z,16.33
2023-10-06T11:08:39.776Z,108.33
2023-10-06T11:09:13.690Z,94.67
2023-10-06T11:09:48.985Z,74.67
2023-10-06T11:10:24.115Z,144.00
2023-10-06T11:11:01.780Z,140.00
2023-10-06T11:11:35.335Z,70.33
2023-10-06T11:12:27.317Z,45.33
2023-10-06T11:13:48.339Z,11.33
2023-10-06T11:14:31.993Z,13.00
2023-10-06T11:15:14.997Z,100.00
2023-10-06T11:15:50.480Z,240.67
2023-10-06T11:16:24.612Z,220.33
2023-10-06T11:17:06.824Z,208.67
2023-10-06T11:17:39.709Z,174.33
2023-10-06T11:18:14.492Z,134.67
2023-10-06T11:18:47.162Z,96.67
2023-10-06T11:19:21.017Z,46.00
2023-10-06T11:20:23.939Z,19.67
2023-10-06T11:20:56.737Z,8.67
2023-10-06T11:21:29.405Z,5.00
2023-10-06T11:22:26.210Z,2.67
2023-10-06T11:23:01.735Z,2.00
2023-10-06T11:23:45.130Z,1.00
2023-10-06T11:24:27.531Z,1.00
2023-10-06T11:25:04.382Z,1.00
2023-10-06T11:25:40.179Z,9.33
2023-10-06T11:26:13.548Z,28.00
2023-10-06T11:26:46.149Z,25.33
2023-10-06T11:27:24.553Z,12.67
2023-10-06T11:28:05.535Z,8.67
2023-10-06T11:28:42.929Z,8.67
2023-10-06T11:29:28.706Z,5.00
2023-10-06T11:30:09.669Z,4.00
2023-10-06T11:30:44.001Z,3.00
2023-10-06T11:31:19.902Z,3.67
2023-10-06T11:31:52.476Z,5.00
2023-10-06T11:32:27.423Z,7.00
2023-10-06T11:33:03.252Z,6.00
2023-10-06T11:33:37.458Z,4.33
2023-10-06T11:34:10.525Z,3.00
2023-10-06T11:34:45.067Z,2.00
2023-10-06T11:35:18.864Z,2.00
2023-10-06T11:35:55.241Z,2.00
2023-10-06T11:36:28.234Z,2.00
2023-10-06T11:37:00.825Z,2.00
2023-10-06T11:37:33.590Z,2.00
2023-10-06T11:38:08.217Z,3.00
2023-10-06T11:38:41.413Z,21.67
2023-10-06T11:39:13.906Z,91.00
2023-10-06T11:39:47.222Z,54.67
2023-10-06T11:40:22.881Z,38.00
2023-10-06T11:40:58.363Z,30.33
2023-10-06T11:41:31.247Z,17.33
2023-10-06T11:42:26.174Z,9.00
2023-10-06T11:43:16.383Z,3.00
2023-10-06T11:43:56.183Z,1.00
2023-10-06T11:44:38.973Z,1.00
2023-10-06T11:45:33.685Z,1.00
2023-10-06T11:46:08.906Z,1.00
2023-10-06T11:46:57.657Z,1.67
2023-10-06T11:47:30.339Z,3.00
2023-10-06T11:48:03.092Z,3.00
2023-10-06T11:48:36.122Z,3.33
2023-10-06T11:49:11.260Z,16.67
2023-10-06T11:49:56.349Z,23.67
2023-10-06T11:50:33.783Z,21.67
2023-10-06T11:51:08.850Z,20.67
2023-10-06T11:51:41.837Z,20.00
2023-10-06T11:52:14.564Z,20.00
2023-10-06T11:52:47.092Z,19.00
2023-10-06T11:53:22.620Z,33.33
2023-10-06T11:54:00.270Z,92.00
2023-10-06T11:54:33.431Z,87.67
2023-10-06T11:55:15.884Z,96.33
2023-10-06T11:55:49.411Z,88.33
2023-10-06T11:56:21.984Z,104.00
2023-10-06T11:56:58.071Z,158.67
2023-10-06T11:57:52.777Z,133.67
2023-10-06T11:58:32.746Z,88.00
2023-10-06T11:59:05.288Z,48.00
2023-10-06T11:59:37.833Z,16.67
2023-10-06T12:00:11.744Z,8.67
2023-10-06T12:00:44.494Z,19.00
2023-10-06T12:01:35.108Z,38.00
2023-10-06T12:02:10.879Z,71.67
2023-10-06T12:02:46.683Z,61.00
2023-10-06T12:03:40.922Z,53.00
2023-10-06T12:04:31.701Z,42.00
2023-10-06T12:05:11.177Z,101.33
2023-10-06T12:05:56.840Z,63.33
2023-10-06T12:06:39.799Z,23.00
2023-10-06T12:07:25.174Z,17.67
2023-10-06T12:08:07.404Z,18.00
2023-10-06T12:08:46.105Z,22.33
2023-10-06T12:09:26.514Z,16.33
2023-10-06T12:10:03.928Z,15.00
2023-10-06T12:10:51.827Z,11.00
2023-10-06T12:11:25.787Z,7.67
2023-10-06T12:12:01.181Z,7.00
2023-10-06T12:12:33.654Z,8.00
2023-10-06T12:13:06.664Z,10.67
2023-10-06T12:13:40.445Z,11.00
2023-10-06T12:14:13.376Z,8.00
2023-10-06T12:14:46.491Z,5.67
2023-10-06T12:15:20.138Z,5.00
2023-10-06T12:15:52.730Z,4.67
2023-10-06T12:16:27.881Z,7.00
2023-10-06T12:17:01.568Z,11.67
2023-10-06T12:17:39.756Z,44.00
2023-10-06T12:18:13.876Z,69.33
2023-10-06T12:18:47.509Z,58.00
2023-10-06T12:19:20.056Z,46.67
2023-10-06T12:19:53.867Z,43.67
2023-10-06T12:20:26.445Z,39.33
2023-10-06T12:20:58.987Z,27.33
2023-10-06T12:21:31.713Z,21.67
2023-10-06T12:22:04.227Z,22.00
2023-10-06T12:22:41.510Z,21.67
2023-10-06T12:23:14.162Z,19.67
2023-10-06T12:23:48.186Z,15.00
2023-10-06T12:24:23.646Z,10.00
2023-10-06T12:24:56.480Z,6.67
2023-10-06T12:25:30.652Z,4.67
2023-10-06T12:26:04.242Z,4.00
2023-10-06T12:26:36.851Z,3.00
2023-10-06T12:27:10.786Z,3.00
2023-10-06T12:27:45.149Z,4.00
2023-10-06T12:28:17.999Z,5.00
2023-10-06T12:28:54.972Z,4.67
2023-10-06T12:29:30.179Z,3.67
2023-10-06T12:30:08.123Z,3.00
2023-10-06T12:30:40.773Z,3.33
2023-10-06T12:31:13.389Z,4.00
2023-10-06T12:31:47.379Z,4.00
2023-10-06T12:32:19.952Z,4.00
2023-10-06T12:32:53.126Z,4.00
2023-10-06T12:33:25.782Z,4.00
2023-10-06T12:33:58.541Z,4.00
2023-10-06T12:34:31.053Z,3.67
2023-10-06T12:35:06.976Z,3.00
2023-10-06T12:35:41.083Z,2.67
2023-10-06T12:36:13.826Z,2.00
2023-10-06T12:36:48.987Z,2.00
2023-10-06T12:37:21.492Z,2.00
2023-10-06T12:37:55.265Z,1.33
2023-10-06T12:38:31.409Z,1.00
2023-10-06T12:39:06.251Z,1.00
2023-10-06T12:39:38.776Z,1.00
2023-10-06T12:40:14.854Z,1.00
2023-10-06T12:40:48.245Z,1.00
2023-10-06T12:41:21.439Z,1.00
2023-10-06T12:41:56.665Z,1.00
2023-10-06T12:42:33.040Z,1.00
2023-10-06T12:43:05.569Z,1.00
2023-10-06T12:43:38.131Z,1.00
2023-10-06T12:44:10.820Z,1.00
2023-10-06T12:44:44.138Z,1.00
2023-10-06T12:45:19.934Z,1.00
2023-10-06T12:45:52.794Z,1.00
2023-10-06T12:46:25.324Z,1.00
2023-10-06T12:47:05.215Z,1.00
2023-10-06T12:47:40.000Z,1.00
2023-10-06T12:48:12.672Z,1.00
2023-10-06T12:48:47.668Z,1.00
2023-10-06T12:49:20.849Z,1.00
2023-10-06T12:49:53.397Z,1.00
2023-10-06T12:50:25.985Z,1.00
2023-10-06T12:50:58.526Z,1.00
2023-10-06T12:51:31.118Z,1.33
2023-10-06T12:52:03.811Z,2.00
2023-10-06T12:52:38.416Z,2.00
2023-10-06T12:53:12.837Z,2.00
2023-10-06T12:53:45.400Z,2.00
2023-10-06T12:54:17.917Z,2.00
2023-10-06T12:54:51.570Z,2.00
2023-10-06T12:55:30.228Z,2.00
2023-10-06T12:56:02.837Z,2.00
2023-10-06T12:56:35.411Z,2.00
2023-10-06T12:57:08.174Z,2.00
2023-10-06T12:57:42.027Z,2.00
2023-10-06T12:58:16.354Z,2.00
2023-10-06T12:58:48.968Z,2.00
2023-10-06T12:59:21.884Z,2.00
2023-10-06T12:59:54.413Z,2.00
2023-10-06T13:00:29.417Z,2.00
2023-10-06T13:01:02.511Z,2.00
2023-10-06T13:01:35.757Z,2.00
2023-10-06T13:02:08.308Z,2.00
2023-10-06T13:02:40.934Z,3.00
2023-10-06T13:03:19.443Z,8.33
2023-10-06T13:03:52.321Z,9.67
2023-10-06T13:04:25.657Z,9.00
2023-10-06T13:04:59.316Z,8.67
2023-10-06T13:05:32.201Z,8.00
2023-10-06T13:06:06.002Z,8.33
2023-10-06T13:06:38.757Z,13.00
2023-10-06T13:07:12.342Z,48.33
2023-10-06T13:07:47.576Z,34.67
2023-10-06T13:08:23.094Z,24.33
2023-10-06T13:08:55.743Z,22.67
2023-10-06T13:09:28.855Z,20.67
2023-10-06T13:10:04.195Z,18.33
2023-10-06T13:10:36.865Z,16.00
2023-10-06T13:11:11.662Z,13.67
2023-10-06T13:11:44.252Z,12.33
2023-10-06T13:12:17.792Z,11.00
2023-10-06T13:12:51.036Z,10.33
2023-10-06T13:13:25.126Z,11.00
2023-10-06T13:13:57.855Z,10.00
2023-10-06T13:14:31.211Z,10.00
2023-10-06T13:15:07.754Z,10.00
2023-10-06T13:15:41.608Z,10.00
2023-10-06T13:16:14.152Z,11.67
2023-10-06T13:16:47.428Z,69.67
2023-10-06T13:17:19.980Z,132.00
2023-10-06T13:17:52.661Z,212.33
2023-10-06T13:18:25.247Z,171.00
2023-10-06T13:18:57.748Z,110.33
2023-10-06T13:19:30.307Z,73.67
2023-10-06T13:20:02.893Z,62.00
2023-10-06T13:20:42.997Z,47.33
2023-10-06T13:21:15.517Z,19.67
2023-10-06T13:21:48.006Z,13.33
2023-10-06T13:22:20.517Z,12.00
2023-10-06T13:22:53.160Z,13.67
2023-10-06T13:23:28.427Z,13.33
2023-10-06T13:24:04.325Z,12.33
2023-10-06T13:24:38.155Z,9.33
2023-10-06T13:25:12.433Z,7.00
2023-10-06T13:25:47.270Z,7.00
2023-10-06T13:26:36.225Z,6.00
2023-10-06T13:27:13.937Z,6.00
2023-10-06T13:27:50.709Z,8.00
2023-10-06T13:28:23.225Z,8.00
2023-10-06T13:28:55.812Z,9.67
2023-10-06T13:29:28.407Z,11.00
2023-10-06T13:30:01.958Z,10.67
2023-10-06T13:30:37.174Z,9.67
2023-10-06T13:31:11.906Z,8.33
2023-10-06T13:31:45.712Z,7.00
2023-10-06T13:32:19.492Z,7.00
2023-10-06T13:32:53.710Z,7.33
2023-10-06T13:33:27.135Z,8.00
2023-10-06T13:34:00.580Z,7.00
2023-10-06T13:34:33.426Z,6.67
2023-10-06T13:35:12.544Z,6.00
2023-10-06T13:35:45.477Z,6.00
2023-10-06T13:36:18.542Z,6.00
2023-10-06T13:36:51.095Z,6.00
2023-10-06T13:37:24.405Z,5.00
2023-10-06T13:37:59.020Z,5.00
2023-10-06T13:38:34.551Z,5.67
2023-10-06T13:39:10.964Z,7.00
2023-10-06T13:39:46.416Z,8.00
2023-10-06T13:40:19.454Z,8.67
2023-10-06T13:40:53.402Z,13.33
2023-10-06T13:41:27.739Z,37.00
2023-10-06T13:42:04.327Z,38.00
2023-10-06T13:42:43.163Z,31.00
2023-10-06T13:43:15.765Z,29.67
2023-10-06T13:43:48.300Z,38.33
2023-10-06T13:44:20.856Z,81.67
2023-10-06T13:44:53.446Z,84.33
2023-10-06T13:45:26.552Z,68.33